sensor_id;sensor_type;location;lat;lon;timestamp;P1;durP1;ratioP1;P2;durP2;ratioP2
10154;SDS011;5118;48.570;7.916;2022-07-01T00:02:28;2.50;;;1.60;;
10154;SDS011;5118;48.570;7.916;2022-07-01T00:05:30;1.80;;;1.30;;
10154;SDS011;5118;48.570;7.916;2022-07-01T00:08:33;2.47;;;1.50;;
10154;SDS011;5118;48.570;7.916;2022-07-01T00:11:36;2.27;;;1.50;;
10154;SDS011;5118;48.570;7.916;2022-07-01T00:14:38;1.80;;;1.70;;
10154;SDS011;5118;48.570;7.916;2022-07-01T00:17:40;4.50;;;1.40;;
10154;SDS011;5118;48.570;7.916;2022-07-01T00:20:42;2.23;;;1.40;;
10154;SDS011;5118;48.570;7.916;2022-07-01T00:23:45;1.50;;;1.40;;
10154;SDS011;5118;48.570;7.916;2022-07-01T00:26:48;1.50;;;1.40;;
10154;SDS011;5118;48.570;7.916;2022-07-01T00:29:50;3.10;;;1.40;;
10154;SDS011;5118;48.570;7.916;2022-07-01T00:32:52;2.33;;;1.40;;
10154;SDS011;5118;48.570;7.916;2022-07-01T00:35:54;1.87;;;1.30;;
10154;SDS011;5118;48.570;7.916;2022-07-01T00:38:57;1.73;;;1.40;;
10154;SDS011;5118;48.570;7.916;2022-07-01T00:42:00;2.20;;;1.40;;
10154;SDS011;5118;48.570;7.916;2022-07-01T00:45:03;2.50;;;1.37;;
10154;SDS011;5118;48.570;7.916;2022-07-01T00:48:01;1.53;;;1.30;;
10154;SDS011;5118;48.570;7.916;2022-07-01T00:50:57;2.93;;;1.37;;
10154;SDS011;5118;48.570;7.916;2022-07-01T00:54:00;2.67;;;1.70;;
10154;SDS011;5118;48.570;7.916;2022-07-01T00:57:05;1.50;;;1.40;;
10154;SDS011;5118;48.570;7.916;2022-07-01T01:00:10;2.13;;;1.40;;
10154;SDS011;5118;48.570;7.916;2022-07-01T01:03:15;3.53;;;1.60;;
10154;SDS011;5118;48.570;7.916;2022-07-01T01:06:17;4.00;;;1.40;;
10154;SDS011;5118;48.570;7.916;2022-07-01T01:09:13;2.57;;;1.40;;
10154;SDS011;5118;48.570;7.916;2022-07-01T01:12:16;3.33;;;1.50;;
10154;SDS011;5118;48.570;7.916;2022-07-01T01:15:19;2.67;;;1.50;;
10154;SDS011;5118;48.570;7.916;2022-07-01T01:18:21;4.57;;;1.93;;
10154;SDS011;5118;48.570;7.916;2022-07-01T01:21:24;2.63;;;1.60;;
10154;SDS011;5118;48.570;7.916;2022-07-01T01:24:27;2.40;;;1.80;;
10154;SDS011;5118;48.570;7.916;2022-07-01T01:27:29;1.70;;;1.60;;
10154;SDS011;5118;48.570;7.916;2022-07-01T01:30:31;3.10;;;1.70;;
10154;SDS011;5118;48.570;7.916;2022-07-01T01:33:33;2.27;;;1.67;;
10154;SDS011;5118;48.570;7.916;2022-07-01T01:36:36;3.33;;;1.70;;
10154;SDS011;5118;48.570;7.916;2022-07-01T01:39:39;3.53;;;1.70;;
10154;SDS011;5118;48.570;7.916;2022-07-01T01:42:41;2.30;;;1.50;;
10154;SDS011;5118;48.570;7.916;2022-07-01T01:45:44;3.03;;;1.70;;
10154;SDS011;5118;48.570;7.916;2022-07-01T01:48:39;2.97;;;1.80;;
10154;SDS011;5118;48.570;7.916;2022-07-01T01:51:34;4.70;;;1.70;;
10154;SDS011;5118;48.570;7.916;2022-07-01T01:54:38;2.87;;;1.50;;
10154;SDS011;5118;48.570;7.916;2022-07-01T01:57:40;1.73;;;1.63;;
10154;SDS011;5118;48.570;7.916;2022-07-01T02:00:42;3.03;;;1.70;;
10154;SDS011;5118;48.570;7.916;2022-07-01T02:03:45;5.07;;;1.90;;
10154;SDS011;5118;48.570;7.916;2022-07-01T02:06:50;2.20;;;2.00;;
10154;SDS011;5118;48.570;7.916;2022-07-01T02:09:52;2.27;;;1.60;;
10154;SDS011;5118;48.570;7.916;2022-07-01T02:12:54;1.83;;;1.70;;
10154;SDS011;5118;48.570;7.916;2022-07-01T02:15:56;1.77;;;1.60;;
10154;SDS011;5118;48.570;7.916;2022-07-01T02:18:58;3.40;;;1.80;;
10154;SDS011;5118;48.570;7.916;2022-07-01T02:22:02;4.73;;;1.90;;
10154;SDS011;5118;48.570;7.916;2022-07-01T02:25:04;2.80;;;1.90;;
10154;SDS011;5118;48.570;7.916;2022-07-01T02:28:07;3.30;;;1.90;;
10154;SDS011;5118;48.570;7.916;2022-07-01T02:31:09;4.00;;;2.10;;
10154;SDS011;5118;48.570;7.916;2022-07-01T02:34:11;2.80;;;2.20;;
10154;SDS011;5118;48.570;7.916;2022-07-01T02:37:14;2.43;;;2.13;;
10154;SDS011;5118;48.570;7.916;2022-07-01T02:40:17;1.97;;;1.87;;
10154;SDS011;5118;48.570;7.916;2022-07-01T02:43:19;1.90;;;1.80;;
10154;SDS011;5118;48.570;7.916;2022-07-01T02:46:21;3.77;;;2.40;;
10154;SDS011;5118;48.570;7.916;2022-07-01T02:49:16;2.60;;;2.07;;
10154;SDS011;5118;48.570;7.916;2022-07-01T02:52:11;2.43;;;2.00;;
10154;SDS011;5118;48.570;7.916;2022-07-01T02:55:15;3.03;;;2.10;;
10154;SDS011;5118;48.570;7.916;2022-07-01T02:58:17;2.87;;;1.97;;
10154;SDS011;5118;48.570;7.916;2022-07-01T03:01:19;2.50;;;2.30;;
10154;SDS011;5118;48.570;7.916;2022-07-01T03:04:21;5.00;;;2.40;;
10154;SDS011;5118;48.570;7.916;2022-07-01T03:07:23;5.03;;;2.73;;
10154;SDS011;5118;48.570;7.916;2022-07-01T03:10:26;3.17;;;2.87;;
10154;SDS011;5118;48.570;7.916;2022-07-01T03:13:29;3.80;;;2.60;;
10154;SDS011;5118;48.570;7.916;2022-07-01T03:16:31;2.77;;;2.57;;
10154;SDS011;5118;48.570;7.916;2022-07-01T03:19:33;3.60;;;2.70;;
10154;SDS011;5118;48.570;7.916;2022-07-01T03:22:35;3.83;;;2.60;;
10154;SDS011;5118;48.570;7.916;2022-07-01T03:25:39;3.00;;;2.70;;
10154;SDS011;5118;48.570;7.916;2022-07-01T03:28:42;4.40;;;3.00;;
10154;SDS011;5118;48.570;7.916;2022-07-01T03:31:44;4.60;;;2.30;;
10154;SDS011;5118;48.570;7.916;2022-07-01T03:34:47;5.70;;;3.07;;
10154;SDS011;5118;48.570;7.916;2022-07-01T03:37:50;3.03;;;2.60;;
10154;SDS011;5118;48.570;7.916;2022-07-01T03:40:53;5.80;;;2.60;;
10154;SDS011;5118;48.570;7.916;2022-07-01T03:43:56;6.20;;;2.50;;
10154;SDS011;5118;48.570;7.916;2022-07-01T03:46:59;3.17;;;2.80;;
10154;SDS011;5118;48.570;7.916;2022-07-01T03:50:02;3.67;;;2.60;;
10154;SDS011;5118;48.570;7.916;2022-07-01T03:53:05;6.07;;;3.27;;
10154;SDS011;5118;48.570;7.916;2022-07-01T03:56:26;5.20;;;3.07;;
10154;SDS011;5118;48.570;7.916;2022-07-01T03:59:29;3.40;;;3.10;;
10154;SDS011;5118;48.570;7.916;2022-07-01T04:02:32;4.50;;;2.90;;
10154;SDS011;5118;48.570;7.916;2022-07-01T04:05:35;4.87;;;3.27;;
10154;SDS011;5118;48.570;7.916;2022-07-01T04:08:38;4.17;;;3.40;;
10154;SDS011;5118;48.570;7.916;2022-07-01T04:11:42;4.23;;;3.50;;
10154;SDS011;5118;48.570;7.916;2022-07-01T04:14:45;4.50;;;3.70;;
10154;SDS011;5118;48.570;7.916;2022-07-01T04:17:47;4.07;;;3.63;;
10154;SDS011;5118;48.570;7.916;2022-07-01T04:20:50;3.40;;;2.97;;
10154;SDS011;5118;48.570;7.916;2022-07-01T04:24:09;4.77;;;3.20;;
10154;SDS011;5118;48.570;7.916;2022-07-01T04:27:12;3.90;;;3.30;;
10154;SDS011;5118;48.570;7.916;2022-07-01T04:30:15;4.03;;;3.00;;
10154;SDS011;5118;48.570;7.916;2022-07-01T04:33:17;4.20;;;3.10;;
10154;SDS011;5118;48.570;7.916;2022-07-01T04:36:19;5.17;;;3.10;;
10154;SDS011;5118;48.570;7.916;2022-07-01T04:39:21;3.30;;;3.00;;
10154;SDS011;5118;48.570;7.916;2022-07-01T04:42:25;3.30;;;2.90;;
10154;SDS011;5118;48.570;7.916;2022-07-01T04:45:27;3.73;;;2.97;;
10154;SDS011;5118;48.570;7.916;2022-07-01T04:48:29;5.50;;;2.60;;
10154;SDS011;5118;48.570;7.916;2022-07-01T04:51:31;3.20;;;2.43;;
10154;SDS011;5118;48.570;7.916;2022-07-01T04:54:33;2.20;;;2.00;;
10154;SDS011;5118;48.570;7.916;2022-07-01T04:57:46;3.80;;;1.70;;
10154;SDS011;5118;48.570;7.916;2022-07-01T05:00:42;1.73;;;1.60;;
10154;SDS011;5118;48.570;7.916;2022-07-01T05:03:44;3.20;;;2.00;;
10154;SDS011;5118;48.570;7.916;2022-07-01T05:06:46;4.70;;;2.37;;
10154;SDS011;5118;48.570;7.916;2022-07-01T05:09:48;3.13;;;1.90;;
10154;SDS011;5118;48.570;7.916;2022-07-01T05:12:52;2.87;;;1.83;;
10154;SDS011;5118;48.570;7.916;2022-07-01T05:15:54;5.07;;;2.10;;
10154;SDS011;5118;48.570;7.916;2022-07-01T05:18:56;3.33;;;1.90;;
10154;SDS011;5118;48.570;7.916;2022-07-01T05:22:15;2.07;;;1.80;;
10154;SDS011;5118;48.570;7.916;2022-07-01T05:25:17;1.80;;;1.60;;
10154;SDS011;5118;48.570;7.916;2022-07-01T05:28:21;3.77;;;1.70;;
10154;SDS011;5118;48.570;7.916;2022-07-01T05:31:23;1.50;;;1.40;;
10154;SDS011;5118;48.570;7.916;2022-07-01T05:34:26;1.60;;;1.50;;
10154;SDS011;5118;48.570;7.916;2022-07-01T05:37:29;2.63;;;1.60;;
10154;SDS011;5118;48.570;7.916;2022-07-01T05:40:34;3.20;;;1.60;;
10154;SDS011;5118;48.570;7.916;2022-07-01T05:43:39;3.57;;;1.50;;
10154;SDS011;5118;48.570;7.916;2022-07-01T05:46:41;1.67;;;1.40;;
10154;SDS011;5118;48.570;7.916;2022-07-01T05:49:43;2.17;;;1.80;;
10154;SDS011;5118;48.570;7.916;2022-07-01T05:52:45;1.93;;;1.73;;
10154;SDS011;5118;48.570;7.916;2022-07-01T05:55:47;2.27;;;1.80;;
10154;SDS011;5118;48.570;7.916;2022-07-01T05:58:50;2.53;;;1.67;;
10154;SDS011;5118;48.570;7.916;2022-07-01T06:01:53;6.63;;;2.00;;
10154;SDS011;5118;48.570;7.916;2022-07-01T06:04:55;1.87;;;1.77;;
10154;SDS011;5118;48.570;7.916;2022-07-01T06:07:58;6.87;;;4.30;;
10154;SDS011;5118;48.570;7.916;2022-07-01T06:11:00;32.37;;;27.93;;
10154;SDS011;5118;48.570;7.916;2022-07-01T06:14:04;24.17;;;21.67;;
10154;SDS011;5118;48.570;7.916;2022-07-01T06:17:07;5.80;;;4.23;;
10154;SDS011;5118;48.570;7.916;2022-07-01T06:20:09;5.03;;;4.40;;
10154;SDS011;5118;48.570;7.916;2022-07-01T06:23:11;8.17;;;7.40;;
10154;SDS011;5118;48.570;7.916;2022-07-01T06:26:13;15.80;;;14.40;;
10154;SDS011;5118;48.570;7.916;2022-07-01T06:29:16;11.13;;;10.03;;
10154;SDS011;5118;48.570;7.916;2022-07-01T06:32:20;10.27;;;9.27;;
10154;SDS011;5118;48.570;7.916;2022-07-01T06:35:22;5.83;;;5.33;;
10154;SDS011;5118;48.570;7.916;2022-07-01T06:38:24;2.80;;;2.60;;
10154;SDS011;5118;48.570;7.916;2022-07-01T06:41:27;9.23;;;7.57;;
10154;SDS011;5118;48.570;7.916;2022-07-01T06:44:30;3.33;;;2.40;;
10154;SDS011;5118;48.570;7.916;2022-07-01T06:47:33;3.67;;;2.30;;
10154;SDS011;5118;48.570;7.916;2022-07-01T06:50:35;2.10;;;1.93;;
10154;SDS011;5118;48.570;7.916;2022-07-01T06:53:37;2.20;;;2.00;;
10154;SDS011;5118;48.570;7.916;2022-07-01T06:56:40;3.87;;;2.13;;
10154;SDS011;5118;48.570;7.916;2022-07-01T06:59:44;4.23;;;3.43;;
10154;SDS011;5118;48.570;7.916;2022-07-01T07:02:46;22.77;;;16.00;;
10154;SDS011;5118;48.570;7.916;2022-07-01T07:05:48;15.30;;;9.03;;
10154;SDS011;5118;48.570;7.916;2022-07-01T07:08:50;13.37;;;9.63;;
10154;SDS011;5118;48.570;7.916;2022-07-01T07:11:52;3.13;;;2.03;;
10154;SDS011;5118;48.570;7.916;2022-07-01T07:14:55;2.30;;;1.70;;
10154;SDS011;5118;48.570;7.916;2022-07-01T07:17:58;1.83;;;1.63;;
10154;SDS011;5118;48.570;7.916;2022-07-01T07:21:01;1.60;;;1.50;;
10154;SDS011;5118;48.570;7.916;2022-07-01T07:24:03;1.60;;;1.50;;
10154;SDS011;5118;48.570;7.916;2022-07-01T07:27:06;2.57;;;1.50;;
10154;SDS011;5118;48.570;7.916;2022-07-01T07:30:10;1.70;;;1.60;;
10154;SDS011;5118;48.570;7.916;2022-07-01T07:33:13;4.23;;;3.60;;
10154;SDS011;5118;48.570;7.916;2022-07-01T07:36:15;1.70;;;1.60;;
10154;SDS011;5118;48.570;7.916;2022-07-01T07:39:17;1.57;;;1.30;;
10154;SDS011;5118;48.570;7.916;2022-07-01T07:42:19;2.90;;;1.53;;
10154;SDS011;5118;48.570;7.916;2022-07-01T07:45:23;2.60;;;1.60;;
10154;SDS011;5118;48.570;7.916;2022-07-01T07:48:18;1.17;;;1.10;;
10154;SDS011;5118;48.570;7.916;2022-07-01T07:51:14;2.30;;;0.93;;
10154;SDS011;5118;48.570;7.916;2022-07-01T07:54:16;1.90;;;1.00;;
10154;SDS011;5118;48.570;7.916;2022-07-01T07:57:18;1.63;;;1.10;;
10154;SDS011;5118;48.570;7.916;2022-07-01T08:00:20;1.70;;;0.97;;
10154;SDS011;5118;48.570;7.916;2022-07-01T08:03:26;3.13;;;1.20;;
10154;SDS011;5118;48.570;7.916;2022-07-01T08:06:28;1.20;;;1.10;;
10154;SDS011;5118;48.570;7.916;2022-07-01T08:09:30;1.10;;;1.00;;
10154;SDS011;5118;48.570;7.916;2022-07-01T08:12:32;1.53;;;1.20;;
10154;SDS011;5118;48.570;7.916;2022-07-01T08:15:37;1.00;;;1.00;;
10154;SDS011;5118;48.570;7.916;2022-07-01T08:18:39;2.70;;;1.30;;
10154;SDS011;5118;48.570;7.916;2022-07-01T08:21:41;1.40;;;1.23;;
10154;SDS011;5118;48.570;7.916;2022-07-01T08:24:43;1.10;;;1.10;;
10154;SDS011;5118;48.570;7.916;2022-07-01T08:27:45;1.80;;;1.30;;
10154;SDS011;5118;48.570;7.916;2022-07-01T08:30:48;1.10;;;1.00;;
10154;SDS011;5118;48.570;7.916;2022-07-01T08:33:51;1.70;;;1.20;;
10154;SDS011;5118;48.570;7.916;2022-07-01T08:36:53;1.50;;;1.40;;
10154;SDS011;5118;48.570;7.916;2022-07-01T08:39:55;1.20;;;1.10;;
10154;SDS011;5118;48.570;7.916;2022-07-01T08:42:58;1.70;;;1.20;;
10154;SDS011;5118;48.570;7.916;2022-07-01T08:46:04;1.30;;;1.20;;
10154;SDS011;5118;48.570;7.916;2022-07-01T08:49:01;1.23;;;1.13;;
10154;SDS011;5118;48.570;7.916;2022-07-01T08:51:57;1.13;;;1.10;;
10154;SDS011;5118;48.570;7.916;2022-07-01T08:54:59;1.03;;;1.03;;
10154;SDS011;5118;48.570;7.916;2022-07-01T08:58:01;1.10;;;1.00;;
10154;SDS011;5118;48.570;7.916;2022-07-01T09:01:14;1.13;;;1.00;;
10154;SDS011;5118;48.570;7.916;2022-07-01T09:04:19;1.20;;;1.10;;
10154;SDS011;5118;48.570;7.916;2022-07-01T09:07:24;1.37;;;1.17;;
10154;SDS011;5118;48.570;7.916;2022-07-01T09:10:36;1.50;;;1.13;;
10154;SDS011;5118;48.570;7.916;2022-07-01T09:13:38;1.40;;;1.02;;
10154;SDS011;5118;48.570;7.916;2022-07-01T09:16:42;1.75;;;1.13;;
10154;SDS011;5118;48.570;7.916;2022-07-01T09:19:48;2.55;;;1.27;;
10154;SDS011;5118;48.570;7.916;2022-07-01T09:23:01;0.90;;;0.90;;
10154;SDS011;5118;48.570;7.916;2022-07-01T09:26:04;1.48;;;1.08;;
10154;SDS011;5118;48.570;7.916;2022-07-01T09:29:06;1.23;;;0.93;;
10154;SDS011;5118;48.570;7.916;2022-07-01T09:32:10;0.90;;;0.90;;
10154;SDS011;5118;48.570;7.916;2022-07-01T09:35:15;1.00;;;0.85;;
10154;SDS011;5118;48.570;7.916;2022-07-01T09:38:23;1.80;;;1.17;;
10154;SDS011;5118;48.570;7.916;2022-07-01T09:41:26;1.55;;;1.00;;
10154;SDS011;5118;48.570;7.916;2022-07-01T09:44:28;1.17;;;1.10;;
10154;SDS011;5118;48.570;7.916;2022-07-01T09:47:32;1.20;;;1.10;;
10154;SDS011;5118;48.570;7.916;2022-07-01T09:50:37;1.10;;;1.10;;
10154;SDS011;5118;48.570;7.916;2022-07-01T09:53:32;2.13;;;1.20;;
10154;SDS011;5118;48.570;7.916;2022-07-01T09:56:28;1.67;;;1.17;;
10154;SDS011;5118;48.570;7.916;2022-07-01T09:59:36;4.63;;;1.20;;
10154;SDS011;5118;48.570;7.916;2022-07-01T10:02:40;1.17;;;1.10;;
10154;SDS011;5118;48.570;7.916;2022-07-01T10:05:45;1.10;;;1.00;;
10154;SDS011;5118;48.570;7.916;2022-07-01T10:08:54;1.23;;;1.08;;
10154;SDS011;5118;48.570;7.916;2022-07-01T10:15:36;1.38;;;1.13;;
10154;SDS011;5118;48.570;7.916;2022-07-01T10:18:42;4.50;;;1.20;;
10154;SDS011;5118;48.570;7.916;2022-07-01T10:21:44;1.42;;;1.10;;
10154;SDS011;5118;48.570;7.916;2022-07-01T10:24:47;1.90;;;1.20;;
10154;SDS011;5118;48.570;7.916;2022-07-01T10:31:34;3.63;;;1.20;;
10154;SDS011;5118;48.570;7.916;2022-07-01T10:34:39;2.22;;;1.10;;
10154;SDS011;5118;48.570;7.916;2022-07-01T10:37:35;1.77;;;1.10;;
10154;SDS011;5118;48.570;7.916;2022-07-01T10:40:58;1.25;;;1.15;;
10154;SDS011;5118;48.570;7.916;2022-07-01T10:44:07;1.63;;;1.10;;
10154;SDS011;5118;48.570;7.916;2022-07-01T10:47:05;1.23;;;1.13;;
10154;SDS011;5118;48.570;7.916;2022-07-01T10:50:10;1.38;;;1.10;;
10154;SDS011;5118;48.570;7.916;2022-07-01T10:53:18;1.17;;;1.02;;
10154;SDS011;5118;48.570;7.916;2022-07-01T10:56:37;0.98;;;0.93;;
10154;SDS011;5118;48.570;7.916;2022-07-01T10:59:39;1.10;;;1.00;;
10154;SDS011;5118;48.570;7.916;2022-07-01T11:02:42;1.60;;;1.08;;
10154;SDS011;5118;48.570;7.916;2022-07-01T11:05:46;1.23;;;1.10;;
10154;SDS011;5118;48.570;7.916;2022-07-01T11:08:50;1.05;;;1.00;;
10154;SDS011;5118;48.570;7.916;2022-07-01T11:11:53;1.42;;;1.10;;
10154;SDS011;5118;48.570;7.916;2022-07-01T11:14:56;1.10;;;1.00;;
10154;SDS011;5118;48.570;7.916;2022-07-01T11:18:00;1.20;;;1.10;;
10154;SDS011;5118;48.570;7.916;2022-07-01T11:21:05;1.85;;;1.23;;
10154;SDS011;5118;48.570;7.916;2022-07-01T11:24:08;2.08;;;1.00;;
10154;SDS011;5118;48.570;7.916;2022-07-01T11:27:10;1.00;;;1.00;;
10154;SDS011;5118;48.570;7.916;2022-07-01T11:30:13;1.08;;;1.05;;
10154;SDS011;5118;48.570;7.916;2022-07-01T11:33:16;1.10;;;1.00;;
10154;SDS011;5118;48.570;7.916;2022-07-01T11:36:20;1.13;;;1.00;;
10154;SDS011;5118;48.570;7.916;2022-07-01T11:39:39;1.42;;;1.00;;
10154;SDS011;5118;48.570;7.916;2022-07-01T11:42:41;1.10;;;1.00;;
10154;SDS011;5118;48.570;7.916;2022-07-01T11:45:44;1.15;;;1.00;;
10154;SDS011;5118;48.570;7.916;2022-07-01T11:48:47;1.88;;;1.10;;
10154;SDS011;5118;48.570;7.916;2022-07-01T11:51:55;2.45;;;1.08;;
10154;SDS011;5118;48.570;7.916;2022-07-01T11:54:58;0.90;;;0.90;;
10154;SDS011;5118;48.570;7.916;2022-07-01T11:58:20;2.53;;;0.93;;
10154;SDS011;5118;48.570;7.916;2022-07-01T12:01:23;1.35;;;0.80;;
10154;SDS011;5118;48.570;7.916;2022-07-01T12:04:26;1.02;;;0.93;;
10154;SDS011;5118;48.570;7.916;2022-07-01T12:07:33;0.98;;;0.90;;
10154;SDS011;5118;48.570;7.916;2022-07-01T12:10:35;1.80;;;1.00;;
10154;SDS011;5118;48.570;7.916;2022-07-01T12:13:38;1.40;;;0.82;;
10154;SDS011;5118;48.570;7.916;2022-07-01T12:16:40;1.35;;;0.93;;
10154;SDS011;5118;48.570;7.916;2022-07-01T12:19:44;0.90;;;0.90;;
10154;SDS011;5118;48.570;7.916;2022-07-01T12:22:43;7.80;;;1.13;;
10154;SDS011;5118;48.570;7.916;2022-07-01T12:25:46;1.35;;;1.05;;
10154;SDS011;5118;48.570;7.916;2022-07-01T12:28:49;1.73;;;1.10;;
10154;SDS011;5118;48.570;7.916;2022-07-01T12:31:59;1.10;;;1.00;;
10154;SDS011;5118;48.570;7.916;2022-07-01T12:35:03;3.15;;;1.05;;
10154;SDS011;5118;48.570;7.916;2022-07-01T12:38:22;1.08;;;1.00;;
10154;SDS011;5118;48.570;7.916;2022-07-01T12:41:27;1.20;;;1.10;;
10154;SDS011;5118;48.570;7.916;2022-07-01T12:44:31;2.83;;;1.10;;
10154;SDS011;5118;48.570;7.916;2022-07-01T12:47:34;1.10;;;1.00;;
10154;SDS011;5118;48.570;7.916;2022-07-01T12:50:37;1.77;;;1.30;;
10154;SDS011;5118;48.570;7.916;2022-07-01T12:53:43;1.20;;;1.10;;
10154;SDS011;5118;48.570;7.916;2022-07-01T12:56:38;1.38;;;1.25;;
10154;SDS011;5118;48.570;7.916;2022-07-01T12:59:35;1.20;;;1.10;;
10154;SDS011;5118;48.570;7.916;2022-07-01T13:02:38;1.58;;;1.30;;
10154;SDS011;5118;48.570;7.916;2022-07-01T13:05:40;2.15;;;1.30;;
10154;SDS011;5118;48.570;7.916;2022-07-01T13:08:44;1.20;;;1.10;;
10154;SDS011;5118;48.570;7.916;2022-07-01T13:11:46;1.65;;;1.20;;
10154;SDS011;5118;48.570;7.916;2022-07-01T13:14:48;3.17;;;1.20;;
10154;SDS011;5118;48.570;7.916;2022-07-01T13:17:50;1.58;;;1.10;;
10154;SDS011;5118;48.570;7.916;2022-07-01T13:20:53;1.35;;;1.25;;
10154;SDS011;5118;48.570;7.916;2022-07-01T13:23:57;4.72;;;1.30;;
10154;SDS011;5118;48.570;7.916;2022-07-01T13:27:18;2.15;;;1.23;;
10154;SDS011;5118;48.570;7.916;2022-07-01T13:30:20;1.30;;;1.20;;
10154;SDS011;5118;48.570;7.916;2022-07-01T13:33:22;1.88;;;1.25;;
10154;SDS011;5118;48.570;7.916;2022-07-01T13:36:18;1.73;;;1.08;;
10154;SDS011;5118;48.570;7.916;2022-07-01T13:39:22;1.92;;;1.15;;
10154;SDS011;5118;48.570;7.916;2022-07-01T13:42:25;1.20;;;1.10;;
10154;SDS011;5118;48.570;7.916;2022-07-01T13:45:27;1.20;;;1.08;;
10154;SDS011;5118;48.570;7.916;2022-07-01T13:48:23;1.20;;;1.10;;
10154;SDS011;5118;48.570;7.916;2022-07-01T13:51:25;2.08;;;1.17;;
10154;SDS011;5118;48.570;7.916;2022-07-01T13:54:29;1.05;;;0.95;;
10154;SDS011;5118;48.570;7.916;2022-07-01T13:57:24;1.52;;;1.10;;
10154;SDS011;5118;48.570;7.916;2022-07-01T14:00:20;1.33;;;1.13;;
10154;SDS011;5118;48.570;7.916;2022-07-01T14:03:22;1.35;;;1.25;;
10154;SDS011;5118;48.570;7.916;2022-07-01T14:06:24;1.58;;;1.10;;
10154;SDS011;5118;48.570;7.916;2022-07-01T14:09:26;1.60;;;1.10;;
10154;SDS011;5118;48.570;7.916;2022-07-01T14:12:30;2.25;;;1.00;;
10154;SDS011;5118;48.570;7.916;2022-07-01T14:15:32;1.83;;;0.90;;
10154;SDS011;5118;48.570;7.916;2022-07-01T14:18:35;1.20;;;1.10;;
10154;SDS011;5118;48.570;7.916;2022-07-01T14:21:38;1.00;;;0.90;;
10154;SDS011;5118;48.570;7.916;2022-07-01T14:24:42;0.80;;;0.80;;
10154;SDS011;5118;48.570;7.916;2022-07-01T14:27:44;1.98;;;1.05;;
10154;SDS011;5118;48.570;7.916;2022-07-01T14:30:46;0.85;;;0.85;;
10154;SDS011;5118;48.570;7.916;2022-07-01T14:33:48;0.80;;;0.80;;
10154;SDS011;5118;48.570;7.916;2022-07-01T14:36:50;0.95;;;0.90;;
10154;SDS011;5118;48.570;7.916;2022-07-01T14:39:54;1.40;;;0.98;;
10154;SDS011;5118;48.570;7.916;2022-07-01T14:42:57;1.30;;;0.90;;
10154;SDS011;5118;48.570;7.916;2022-07-01T14:45:59;2.65;;;1.00;;
10154;SDS011;5118;48.570;7.916;2022-07-01T14:49:04;1.10;;;1.00;;
10154;SDS011;5118;48.570;7.916;2022-07-01T14:52:15;1.45;;;1.25;;
10154;SDS011;5118;48.570;7.916;2022-07-01T14:55:20;1.67;;;0.90;;
10154;SDS011;5118;48.570;7.916;2022-07-01T14:58:22;1.58;;;0.80;;
10154;SDS011;5118;48.570;7.916;2022-07-01T15:01:24;0.82;;;0.75;;
10154;SDS011;5118;48.570;7.916;2022-07-01T15:04:26;1.08;;;0.75;;
10154;SDS011;5118;48.570;7.916;2022-07-01T15:07:29;1.00;;;0.75;;
10154;SDS011;5118;48.570;7.916;2022-07-01T15:10:33;1.17;;;0.85;;
10154;SDS011;5118;48.570;7.916;2022-07-01T15:13:35;0.77;;;0.77;;
10154;SDS011;5118;48.570;7.916;2022-07-01T15:16:37;0.93;;;0.90;;
10154;SDS011;5118;48.570;7.916;2022-07-01T15:19:39;1.23;;;0.90;;
10154;SDS011;5118;48.570;7.916;2022-07-01T15:22:42;0.80;;;0.80;;
10154;SDS011;5118;48.570;7.916;2022-07-01T15:25:47;0.70;;;0.70;;
10154;SDS011;5118;48.570;7.916;2022-07-01T15:28:49;1.30;;;0.63;;
10154;SDS011;5118;48.570;7.916;2022-07-01T15:31:51;0.60;;;0.60;;
10154;SDS011;5118;48.570;7.916;2022-07-01T15:34:53;4.75;;;0.80;;
10154;SDS011;5118;48.570;7.916;2022-07-01T15:37:56;1.08;;;0.80;;
10154;SDS011;5118;48.570;7.916;2022-07-01T15:41:00;0.65;;;0.65;;
10154;SDS011;5118;48.570;7.916;2022-07-01T15:44:02;0.82;;;0.70;;
10154;SDS011;5118;48.570;7.916;2022-07-01T15:47:05;0.88;;;0.70;;
10154;SDS011;5118;48.570;7.916;2022-07-01T15:50:23;1.10;;;0.70;;
10154;SDS011;5118;48.570;7.916;2022-07-01T15:53:25;1.40;;;0.70;;
10154;SDS011;5118;48.570;7.916;2022-07-01T15:56:29;0.70;;;0.70;;
10154;SDS011;5118;48.570;7.916;2022-07-01T15:59:31;0.88;;;0.88;;
10154;SDS011;5118;48.570;7.916;2022-07-01T16:02:33;1.90;;;0.82;;
10154;SDS011;5118;48.570;7.916;2022-07-01T16:05:36;1.20;;;0.85;;
10154;SDS011;5118;48.570;7.916;2022-07-01T16:08:41;1.45;;;0.80;;
10154;SDS011;5118;48.570;7.916;2022-07-01T16:11:48;1.98;;;1.02;;
10154;SDS011;5118;48.570;7.916;2022-07-01T16:14:50;1.10;;;0.80;;
10154;SDS011;5118;48.570;7.916;2022-07-01T16:17:55;1.25;;;0.75;;
10154;SDS011;5118;48.570;7.916;2022-07-01T16:21:01;0.82;;;0.82;;
10154;SDS011;5118;48.570;7.916;2022-07-01T16:24:04;0.70;;;0.70;;
10154;SDS011;5118;48.570;7.916;2022-07-01T16:27:11;0.80;;;0.80;;
10154;SDS011;5118;48.570;7.916;2022-07-01T16:30:14;1.45;;;0.70;;
10154;SDS011;5118;48.570;7.916;2022-07-01T16:33:16;0.98;;;0.80;;
10154;SDS011;5118;48.570;7.916;2022-07-01T16:36:19;1.15;;;1.05;;
10154;SDS011;5118;48.570;7.916;2022-07-01T16:39:26;1.00;;;0.90;;
10154;SDS011;5118;48.570;7.916;2022-07-01T16:42:36;1.45;;;0.65;;
10154;SDS011;5118;48.570;7.916;2022-07-01T16:45:39;1.13;;;1.00;;
10154;SDS011;5118;48.570;7.916;2022-07-01T16:48:46;1.05;;;0.95;;
10154;SDS011;5118;48.570;7.916;2022-07-01T16:51:51;1.20;;;0.73;;
10154;SDS011;5118;48.570;7.916;2022-07-01T16:54:57;1.58;;;0.75;;
10154;SDS011;5118;48.570;7.916;2022-07-01T16:58:02;0.93;;;0.80;;
10154;SDS011;5118;48.570;7.916;2022-07-01T17:00:58;0.95;;;0.70;;
10154;SDS011;5118;48.570;7.916;2022-07-01T17:03:55;1.42;;;0.98;;
10154;SDS011;5118;48.570;7.916;2022-07-01T17:06:52;0.80;;;0.77;;
10154;SDS011;5118;48.570;7.916;2022-07-01T17:09:54;1.25;;;0.70;;
10154;SDS011;5118;48.570;7.916;2022-07-01T17:12:57;1.15;;;0.90;;
10154;SDS011;5118;48.570;7.916;2022-07-01T17:16:02;0.80;;;0.80;;
10154;SDS011;5118;48.570;7.916;2022-07-01T17:19:04;2.47;;;0.90;;
10154;SDS011;5118;48.570;7.916;2022-07-01T17:22:08;1.00;;;0.80;;
10154;SDS011;5118;48.570;7.916;2022-07-01T17:25:17;1.95;;;0.60;;
10154;SDS011;5118;48.570;7.916;2022-07-01T17:28:34;0.70;;;0.70;;
10154;SDS011;5118;48.570;7.916;2022-07-01T17:31:48;0.77;;;0.77;;
10154;SDS011;5118;48.570;7.916;2022-07-01T17:34:53;1.17;;;0.80;;
10154;SDS011;5118;48.570;7.916;2022-07-01T17:37:57;1.55;;;0.75;;
10154;SDS011;5118;48.570;7.916;2022-07-01T17:41:03;1.13;;;0.63;;
10154;SDS011;5118;48.570;7.916;2022-07-01T17:44:09;0.95;;;0.70;;
10154;SDS011;5118;48.570;7.916;2022-07-01T17:47:15;1.23;;;0.80;;
10154;SDS011;5118;48.570;7.916;2022-07-01T17:50:18;1.00;;;0.82;;
10154;SDS011;5118;48.570;7.916;2022-07-01T17:53:25;0.95;;;0.70;;
10154;SDS011;5118;48.570;7.916;2022-07-01T17:56:28;0.80;;;0.80;;
10154;SDS011;5118;48.570;7.916;2022-07-01T17:59:31;1.02;;;0.82;;
10154;SDS011;5118;48.570;7.916;2022-07-01T18:02:37;0.90;;;0.90;;
10154;SDS011;5118;48.570;7.916;2022-07-01T18:05:36;1.75;;;0.90;;
10154;SDS011;5118;48.570;7.916;2022-07-01T18:08:32;1.42;;;0.90;;
10154;SDS011;5118;48.570;7.916;2022-07-01T18:11:37;1.05;;;0.85;;
10154;SDS011;5118;48.570;7.916;2022-07-01T18:14:55;1.45;;;0.88;;
10154;SDS011;5118;48.570;7.916;2022-07-01T18:18:05;1.00;;;1.00;;
10154;SDS011;5118;48.570;7.916;2022-07-01T18:21:10;0.80;;;0.80;;
10154;SDS011;5118;48.570;7.916;2022-07-01T18:24:16;0.90;;;0.90;;
10154;SDS011;5118;48.570;7.916;2022-07-01T18:27:20;1.55;;;1.00;;
10154;SDS011;5118;48.570;7.916;2022-07-01T18:30:29;1.77;;;1.00;;
10154;SDS011;5118;48.570;7.916;2022-07-01T18:33:29;1.80;;;0.82;;
10154;SDS011;5118;48.570;7.916;2022-07-01T18:36:36;0.90;;;0.90;;
10154;SDS011;5118;48.570;7.916;2022-07-01T18:39:42;3.83;;;3.20;;
10154;SDS011;5118;48.570;7.916;2022-07-01T18:42:44;1.80;;;1.70;;
10154;SDS011;5118;48.570;7.916;2022-07-01T18:45:46;0.80;;;0.80;;
10154;SDS011;5118;48.570;7.916;2022-07-01T18:48:50;1.38;;;0.90;;